首页
METAR-TAF:

METAR-TAF

机场 :

阿什维尔, 北卡罗来纳州, 美国

纬度: 35-25-55N, 经度: 082-32-15W, 海拔: 660米

当前天气观测

该预报发布于58分钟前的15:54 UTC
风速7节,风向
温度 26°C
湿度 65%
气压 1022 hPa
能見度: 16.1公里
天空无云

METAR: KAVL 231554Z 17007KT 10SM CLR 26/19 A3017 RMK AO2 SLP190 T02560189

时间: 12:52 (16:52 UTC)

预报

该预报发布于5小时和14分钟前的11:38 UTC
预报有效从23日的 12点(UTC)到 24日的 12点(UTC)
风速节,风向
能見度: 0.4公里
层高于100英尺
短暂存在
从 23日的 13点(UTC)到 23日的 14点(UTC)
能見度: 6.4公里
多云层高于9000英尺
轻雾
从 23日的 1400点(UTC)
风速5节,风向
能見度: 10公里
多云层高于11000英尺
从 23日的 1800点(UTC)
风速6节,风向南转南东
能見度: 10公里
散云层高于3000英尺
多云层高于9000英尺
附近有阵雨
几率 30%
从 23日的 21点(UTC)到 24日的 02点(UTC)
能見度: 6.4公里
阴天层高于2500英尺
小阵雨, 轻雾
从 24日的 0200点(UTC)
风速4节,风向东南
能見度: 10公里
多云层高于4000英尺
从 24日的 0600点(UTC)
风速4节,风向东转东南
能見度: 4.8公里
阴天层高于1200英尺
轻雾
从 24日的 0800点(UTC)
风速4节,风向东转东南
能見度: 3.2公里
阴天层高于900英尺
轻雾

TAF: KAVL 231138Z 2312/2412 00000KT 1/4SM FG VV001 TEMPO 2313/2314 4SM BR BKN090 FM231400 17005KT P6SM BKN110 FM231800 15006KT P6SM VCSH SCT030 BKN090 PROB30 2321/2402 4SM -SHRA BR OVC025 FM240200 13004KT P6SM BKN040 FM240600 11004KT 3SM BR OVC012 FM240800 11004KT 2SM BR OVC009

超过4000个机场的气象观测和天气预报(METAR&TAF报告)。

可查询的气象台以黄色和红色小点在地图上表示。

将鼠标移到小点上方,可查看气象台名称。

然后点击查看天气观测和预报。

如需切换地图:点击带黑十字的绿色按钮放大地图;点击带横线的绿色按钮缩小地图;或者点击绿色箭头查看邻近地区的地图。


METAR-TAF: